createdAt,value
2019-03-15T00:01:24.847Z,2.20
2019-03-15T00:03:53.370Z,2.63
2019-03-15T00:06:21.519Z,3.17
2019-03-15T00:08:49.729Z,2.77
2019-03-15T00:11:17.903Z,2.40
2019-03-15T00:13:45.999Z,2.30
2019-03-15T00:16:14.213Z,2.60
2019-03-15T00:18:42.339Z,2.37
2019-03-15T00:21:10.468Z,2.80
2019-03-15T00:23:38.601Z,2.97
2019-03-15T00:26:06.976Z,2.50
2019-03-15T00:28:35.442Z,2.73
2019-03-15T00:31:03.900Z,2.47
2019-03-15T00:33:32.019Z,2.60
2019-03-15T00:36:00.181Z,2.57
2019-03-15T00:38:28.298Z,2.77
2019-03-15T00:40:56.436Z,2.57
2019-03-15T00:43:24.556Z,2.87
2019-03-15T00:45:52.706Z,2.53
2019-03-15T00:48:20.816Z,2.20
2019-03-15T00:50:48.961Z,2.03
2019-03-15T00:53:17.093Z,2.13
2019-03-15T00:55:45.517Z,2.60
2019-03-15T00:58:13.779Z,2.40
2019-03-15T01:00:41.896Z,2.53
2019-03-15T01:03:10.115Z,2.83
2019-03-15T01:05:38.308Z,2.80
2019-03-15T01:08:06.445Z,2.27
2019-03-15T01:10:34.557Z,2.20
2019-03-15T01:13:02.693Z,3.00
2019-03-15T01:15:30.815Z,2.43
2019-03-15T01:17:58.936Z,2.87
2019-03-15T01:20:27.048Z,3.07
2019-03-15T01:22:55.510Z,2.43
2019-03-15T01:25:23.611Z,2.57
2019-03-15T01:27:51.745Z,2.17
2019-03-15T01:30:19.860Z,2.60
2019-03-15T01:32:48.010Z,2.00
2019-03-15T01:35:16.116Z,2.20
2019-03-15T01:37:44.280Z,2.03
2019-03-15T01:40:12.560Z,1.97
2019-03-15T01:42:40.684Z,2.70
2019-03-15T01:45:09.376Z,2.43
2019-03-15T01:47:37.684Z,2.23
2019-03-15T01:50:07.269Z,1.90
2019-03-15T01:52:35.450Z,2.23
2019-03-15T01:55:04.271Z,2.17
2019-03-15T01:57:32.382Z,2.43
2019-03-15T02:00:00.582Z,2.20
2019-03-15T02:02:28.694Z,2.60
2019-03-15T02:04:57.631Z,2.63
2019-03-15T02:07:25.945Z,3.30
2019-03-15T02:09:54.057Z,2.27
2019-03-15T02:12:22.167Z,1.97
2019-03-15T02:14:50.384Z,2.03
2019-03-15T02:17:18.487Z,1.97
2019-03-15T02:19:46.635Z,2.17
2019-03-15T02:22:14.754Z,2.03
2019-03-15T02:24:43.076Z,1.80
2019-03-15T02:27:11.360Z,2.20
2019-03-15T02:29:39.572Z,2.63
2019-03-15T02:32:07.690Z,2.20
2019-03-15T02:34:35.835Z,2.57
2019-03-15T02:37:03.949Z,2.37
2019-03-15T02:39:32.077Z,2.73
2019-03-15T02:42:00.199Z,2.73
2019-03-15T02:44:28.326Z,2.17
2019-03-15T02:46:56.434Z,2.63
2019-03-15T02:49:24.577Z,2.50
2019-03-15T02:51:52.688Z,2.40
2019-03-15T02:54:20.832Z,2.47
2019-03-15T02:56:48.945Z,2.40
2019-03-15T02:59:17.067Z,2.10
2019-03-15T03:01:45.196Z,2.53
2019-03-15T03:04:14.046Z,2.60
2019-03-15T03:06:42.673Z,2.43
2019-03-15T03:09:11.229Z,2.87
2019-03-15T03:11:39.429Z,2.70
2019-03-15T03:14:07.652Z,2.73
2019-03-15T03:16:35.805Z,3.07
2019-03-15T03:19:04.035Z,3.20
2019-03-15T03:21:32.223Z,2.87
2019-03-15T03:24:00.406Z,2.50
2019-03-15T03:26:28.532Z,2.53
2019-03-15T03:28:56.819Z,2.40
2019-03-15T03:31:25.364Z,3.07
2019-03-15T03:33:53.481Z,3.20
2019-03-15T03:36:21.627Z,3.13
2019-03-15T03:38:49.747Z,2.47
2019-03-15T03:41:17.953Z,3.20
2019-03-15T03:43:46.074Z,2.90
2019-03-15T03:46:14.210Z,3.57
2019-03-15T03:48:42.316Z,3.30
2019-03-15T03:51:10.450Z,3.23
2019-03-15T03:53:38.637Z,3.10
2019-03-15T03:56:06.766Z,3.13
2019-03-15T03:58:34.872Z,2.83
2019-03-15T04:01:03.087Z,3.30
2019-03-15T04:03:31.201Z,3.37
2019-03-15T04:05:59.329Z,4.33
2019-03-15T04:08:27.515Z,2.90
2019-03-15T04:10:55.660Z,3.40
2019-03-15T04:13:23.788Z,2.80
2019-03-15T04:15:51.973Z,2.53
2019-03-15T04:18:20.100Z,2.70
2019-03-15T04:20:48.216Z,3.40
2019-03-15T04:23:16.340Z,3.17
2019-03-15T04:25:44.455Z,3.60
2019-03-15T04:28:12.581Z,3.33
2019-03-15T04:30:40.699Z,3.57
2019-03-15T04:33:08.825Z,3.07
2019-03-15T04:35:36.931Z,3.20
2019-03-15T04:38:05.061Z,3.77
2019-03-15T04:40:33.178Z,3.07
2019-03-15T04:43:01.308Z,3.57
2019-03-15T04:45:29.416Z,3.30
2019-03-15T04:47:57.545Z,2.93
2019-03-15T04:50:25.661Z,4.50
2019-03-15T04:52:53.794Z,3.50
2019-03-15T04:55:21.973Z,4.30
2019-03-15T04:57:50.127Z,2.83
2019-03-15T05:00:18.239Z,3.07
2019-03-15T05:02:46.356Z,2.67
2019-03-15T05:05:14.489Z,3.27
2019-03-15T05:07:42.602Z,3.07
2019-03-15T05:10:10.893Z,3.23
2019-03-15T05:12:39.008Z,3.20
2019-03-15T05:15:08.461Z,3.13
2019-03-15T05:17:35.535Z,3.23
2019-03-15T05:20:06.114Z,2.87
2019-03-15T05:22:34.232Z,3.40
2019-03-15T05:25:02.498Z,3.57
2019-03-15T05:27:30.606Z,2.90
2019-03-15T05:29:58.736Z,2.80
2019-03-15T05:32:26.848Z,3.93
2019-03-15T05:34:54.960Z,3.17
2019-03-15T05:37:23.088Z,2.67
2019-03-15T05:39:51.204Z,3.00
2019-03-15T05:42:19.341Z,2.80
2019-03-15T05:44:47.541Z,2.53
2019-03-15T05:47:15.698Z,2.37
2019-03-15T05:49:43.813Z,3.57
2019-03-15T05:52:11.965Z,2.60
2019-03-15T05:54:40.068Z,2.53
2019-03-15T05:57:08.357Z,2.87
2019-03-15T05:59:36.540Z,3.13
2019-03-15T06:02:04.689Z,3.10
2019-03-15T06:04:32.876Z,2.97
2019-03-15T06:07:01.034Z,3.13
2019-03-15T06:09:29.136Z,3.70
2019-03-15T06:11:57.250Z,3.33
2019-03-15T06:14:25.380Z,3.13
2019-03-15T06:16:53.577Z,3.80
2019-03-15T06:19:21.720Z,3.60
2019-03-15T06:21:49.902Z,3.30
2019-03-15T06:24:18.033Z,3.13
2019-03-15T06:26:46.160Z,3.23
2019-03-15T06:29:14.288Z,3.07
2019-03-15T06:31:42.401Z,3.03
2019-03-15T06:34:10.532Z,2.53
2019-03-15T06:36:38.645Z,2.27
2019-03-15T06:39:07.870Z,2.63
2019-03-15T06:41:36.914Z,3.13
2019-03-15T06:44:05.047Z,3.00
2019-03-15T06:46:33.224Z,2.60
2019-03-15T06:49:01.472Z,2.50
2019-03-15T06:51:29.713Z,2.50
2019-03-15T06:54:10.511Z,2.00
2019-03-15T06:56:27.819Z,2.00
2019-03-15T06:58:55.954Z,1.67
2019-03-15T07:01:24.281Z,1.50
2019-03-15T07:03:52.497Z,1.30
2019-03-15T07:06:21.048Z,1.17
2019-03-15T07:08:49.250Z,1.80
2019-03-15T07:11:17.400Z,1.60
2019-03-15T07:13:45.525Z,1.60
2019-03-15T07:16:13.664Z,1.33
2019-03-15T07:18:41.769Z,1.30
2019-03-15T07:21:09.891Z,1.10
2019-03-15T07:23:38.043Z,1.30
2019-03-15T07:26:06.227Z,1.00
2019-03-15T07:28:34.364Z,1.30
2019-03-15T07:31:02.468Z,1.70
2019-03-15T07:33:30.596Z,1.50
2019-03-15T07:35:59.564Z,1.70
2019-03-15T07:38:28.012Z,1.33
2019-03-15T07:40:56.116Z,1.27
2019-03-15T07:43:24.249Z,1.20
2019-03-15T07:45:52.357Z,1.73
2019-03-15T07:48:22.639Z,1.43
2019-03-15T07:50:50.587Z,1.33
2019-03-15T07:53:18.721Z,1.40
2019-03-15T07:55:46.850Z,1.40
2019-03-15T07:58:15.039Z,1.57
2019-03-15T08:00:43.226Z,1.40
2019-03-15T08:03:11.336Z,1.13
2019-03-15T08:05:39.453Z,1.40
2019-03-15T08:08:07.560Z,1.60
2019-03-15T08:10:35.724Z,1.30
2019-03-15T08:13:03.905Z,1.50
2019-03-15T08:15:32.027Z,1.40
2019-03-15T08:18:00.140Z,1.30
2019-03-15T08:20:28.273Z,1.57
2019-03-15T08:22:56.454Z,1.80
2019-03-15T08:25:24.597Z,1.70
2019-03-15T08:27:52.703Z,1.80
2019-03-15T08:30:20.834Z,1.97
2019-03-15T08:32:48.957Z,2.40
2019-03-15T08:35:17.150Z,1.80
2019-03-15T08:37:45.281Z,2.00
2019-03-15T08:40:13.795Z,2.27
2019-03-15T08:42:41.929Z,2.47
2019-03-15T08:45:13.728Z,1.83
2019-03-15T08:47:41.837Z,2.13
2019-03-15T08:50:14.555Z,1.90
2019-03-15T08:52:42.108Z,1.67
2019-03-15T08:55:11.304Z,1.90
2019-03-15T08:57:39.521Z,1.93
2019-03-15T09:00:17.543Z,1.57
2019-03-15T09:02:45.751Z,1.60
2019-03-15T09:05:14.296Z,1.63
2019-03-15T09:07:42.423Z,1.40
2019-03-15T09:10:22.772Z,1.77
2019-03-15T09:12:44.016Z,1.73
2019-03-15T09:15:12.692Z,1.63
2019-03-15T09:17:40.833Z,1.60
2019-03-15T09:20:16.423Z,1.40
2019-03-15T09:22:44.791Z,2.17
2019-03-15T09:25:19.121Z,1.53
2019-03-15T09:27:45.482Z,1.97
2019-03-15T09:30:23.093Z,1.83
2019-03-15T09:32:43.571Z,1.80
2019-03-15T09:35:12.021Z,1.63
2019-03-15T09:37:40.188Z,1.80
2019-03-15T09:40:11.478Z,2.73
2019-03-15T09:42:39.582Z,2.63
2019-03-15T09:45:11.952Z,2.53
2019-03-15T09:47:40.065Z,2.27
2019-03-15T09:50:21.062Z,3.03
2019-03-15T09:52:39.594Z,2.50
2019-03-15T09:55:11.242Z,3.30
2019-03-15T09:57:39.354Z,2.30
2019-03-15T10:00:09.056Z,2.40
2019-03-15T10:02:37.166Z,2.70
2019-03-15T10:05:11.434Z,2.07
2019-03-15T10:07:38.817Z,2.23
2019-03-15T10:10:13.370Z,2.07
2019-03-15T10:12:38.225Z,1.83
2019-03-15T10:15:08.124Z,3.00
2019-03-15T10:17:36.505Z,2.60
2019-03-15T10:20:05.991Z,3.20
2019-03-15T10:22:34.133Z,2.53
2019-03-15T10:25:02.312Z,2.53
2019-03-15T10:27:30.447Z,2.63
2019-03-15T10:29:58.565Z,2.67
2019-03-15T10:32:26.725Z,2.40
2019-03-15T10:34:54.841Z,2.93
2019-03-15T10:37:22.988Z,2.43
2019-03-15T10:39:51.096Z,1.87
2019-03-15T10:42:19.308Z,2.53
2019-03-15T10:44:47.490Z,2.47
2019-03-15T10:47:15.617Z,2.10
2019-03-15T10:49:43.823Z,2.10
2019-03-15T10:52:12.939Z,2.53
2019-03-15T10:54:41.201Z,2.60
2019-03-15T10:57:09.666Z,2.43
2019-03-15T10:59:37.791Z,3.27
2019-03-15T11:02:06.155Z,3.60
2019-03-15T11:04:34.296Z,2.60
2019-03-15T11:07:02.420Z,2.57
2019-03-15T11:09:30.600Z,3.40
2019-03-15T11:11:58.741Z,2.60
2019-03-15T11:14:26.851Z,3.20
2019-03-15T11:16:54.985Z,2.63
2019-03-15T11:19:23.094Z,3.03
2019-03-15T11:21:51.219Z,3.13
2019-03-15T11:24:19.340Z,2.77
2019-03-15T11:26:47.492Z,3.97
2019-03-15T11:29:15.719Z,3.00
2019-03-15T11:31:43.963Z,3.27
2019-03-15T11:34:12.149Z,3.57
2019-03-15T11:36:40.287Z,3.47
2019-03-15T11:39:08.398Z,3.57
2019-03-15T11:41:36.533Z,3.90
2019-03-15T11:44:04.724Z,4.10
2019-03-15T11:46:32.869Z,2.90
2019-03-15T11:49:00.985Z,3.77
2019-03-15T11:51:29.403Z,3.03
2019-03-15T11:53:57.628Z,3.70
2019-03-15T11:56:27.213Z,3.73
2019-03-15T11:58:55.760Z,3.20
2019-03-15T12:01:24.148Z,3.17
2019-03-15T12:03:53.506Z,3.40
2019-03-15T12:06:21.781Z,3.43
2019-03-15T12:08:49.911Z,3.10
2019-03-15T12:11:18.030Z,3.30
2019-03-15T12:13:46.182Z,3.20
2019-03-15T12:16:14.303Z,4.27
2019-03-15T12:18:42.437Z,3.60
2019-03-15T12:21:10.553Z,3.70
2019-03-15T12:23:38.688Z,3.30
2019-03-15T12:26:09.885Z,3.43
2019-03-15T12:28:36.654Z,3.60
2019-03-15T12:31:04.870Z,3.47
2019-03-15T12:33:32.984Z,3.17
2019-03-15T12:36:03.394Z,3.67
2019-03-15T12:38:30.953Z,2.93
2019-03-15T12:40:59.093Z,3.50
2019-03-15T12:43:27.216Z,4.07
2019-03-15T12:45:55.451Z,2.90
2019-03-15T12:48:23.832Z,2.83
2019-03-15T12:50:51.964Z,2.30
2019-03-15T12:53:20.084Z,2.80
2019-03-15T12:55:48.293Z,2.43
2019-03-15T12:58:16.409Z,2.97
2019-03-15T13:00:44.554Z,2.90
2019-03-15T13:03:12.691Z,3.57
2019-03-15T13:05:40.816Z,2.80
2019-03-15T13:08:08.945Z,3.37
2019-03-15T13:10:37.085Z,2.63
2019-03-15T13:13:05.201Z,3.40
2019-03-15T13:15:33.333Z,2.87
2019-03-15T13:18:01.453Z,2.73
2019-03-15T13:20:29.656Z,2.83
2019-03-15T13:22:57.784Z,1.93
2019-03-15T13:25:25.916Z,2.97
2019-03-15T13:27:54.031Z,2.57
2019-03-15T13:30:22.173Z,2.70
2019-03-15T13:32:50.342Z,3.03
2019-03-15T13:35:18.492Z,2.70
2019-03-15T13:37:46.612Z,2.47
2019-03-15T13:40:15.290Z,2.17
2019-03-15T13:42:43.437Z,2.00
2019-03-15T13:45:12.285Z,2.07
2019-03-15T13:47:40.430Z,1.90
2019-03-15T13:50:10.150Z,2.57
2019-03-15T13:52:38.280Z,1.90
2019-03-15T13:55:06.444Z,2.27
2019-03-15T13:57:34.584Z,2.90
2019-03-15T14:00:02.773Z,2.20
2019-03-15T14:02:30.889Z,2.17
2019-03-15T14:04:59.012Z,3.00
2019-03-15T14:07:27.141Z,2.40
2019-03-15T14:09:55.380Z,3.33
2019-03-15T14:12:23.525Z,3.27
2019-03-15T14:14:51.656Z,3.00
2019-03-15T14:17:19.772Z,4.00
2019-03-15T14:19:47.911Z,3.53
2019-03-15T14:22:16.030Z,2.80
2019-03-15T14:24:44.230Z,3.10
2019-03-15T14:27:12.434Z,3.27
2019-03-15T14:29:40.601Z,3.30
2019-03-15T14:32:08.786Z,3.63
2019-03-15T14:34:36.968Z,3.20
2019-03-15T14:37:05.686Z,3.27
2019-03-15T14:39:33.939Z,3.33
2019-03-15T14:42:02.353Z,2.20
2019-03-15T14:44:30.624Z,2.53
2019-03-15T14:46:58.797Z,2.57
2019-03-15T14:49:26.917Z,2.70
2019-03-15T14:51:55.049Z,2.90
2019-03-15T14:54:23.188Z,3.30
2019-03-15T14:56:51.347Z,2.70
2019-03-15T14:59:19.724Z,2.20
2019-03-15T15:01:47.848Z,2.40
2019-03-15T15:04:16.384Z,2.20
2019-03-15T15:06:44.573Z,2.10
2019-03-15T15:09:12.675Z,2.13
2019-03-15T15:11:41.089Z,2.40
2019-03-15T15:14:09.208Z,2.50
2019-03-15T15:16:37.341Z,3.27
2019-03-15T15:19:05.476Z,3.77
2019-03-15T15:21:33.605Z,2.97
2019-03-15T15:24:01.739Z,3.60
2019-03-15T15:26:29.951Z,3.50
2019-03-15T15:28:58.094Z,3.10
2019-03-15T15:31:26.337Z,3.10
2019-03-15T15:33:54.479Z,3.27
2019-03-15T15:36:22.634Z,3.23
2019-03-15T15:38:50.753Z,3.10
2019-03-15T15:41:18.860Z,2.63
2019-03-15T15:43:46.998Z,2.50
2019-03-15T15:46:15.108Z,2.90
2019-03-15T15:48:43.313Z,3.17
2019-03-15T15:51:11.418Z,3.07
2019-03-15T15:53:39.882Z,2.60
2019-03-15T15:56:07.992Z,2.63
2019-03-15T15:58:36.118Z,2.93
2019-03-15T16:01:04.230Z,2.50
2019-03-15T16:03:32.372Z,2.07
2019-03-15T16:06:00.493Z,2.47
2019-03-15T16:08:28.616Z,1.93
2019-03-15T16:10:56.730Z,2.50
2019-03-15T16:13:24.952Z,1.37
2019-03-15T16:15:53.062Z,1.80
2019-03-15T16:18:21.225Z,1.30
2019-03-15T16:20:49.348Z,1.50
2019-03-15T16:23:18.376Z,1.40
2019-03-15T16:25:46.501Z,1.77
2019-03-15T16:28:14.697Z,1.37
2019-03-15T16:30:42.876Z,1.77
2019-03-15T16:33:11.039Z,1.50
2019-03-15T16:35:39.253Z,1.47
2019-03-15T16:38:07.432Z,1.43
2019-03-15T16:40:35.676Z,2.00
2019-03-15T16:43:03.897Z,1.50
2019-03-15T16:45:32.701Z,1.10
2019-03-15T16:48:00.817Z,1.90
2019-03-15T16:50:29.018Z,1.33
2019-03-15T16:52:57.140Z,1.77
2019-03-15T16:55:25.327Z,1.20
2019-03-15T16:57:53.452Z,1.20
2019-03-15T17:00:21.916Z,1.00
2019-03-15T17:02:50.168Z,1.43
2019-03-15T17:05:18.324Z,1.60
2019-03-15T17:07:46.432Z,1.00
2019-03-15T17:10:15.132Z,1.80
2019-03-15T17:12:43.283Z,1.93
2019-03-15T17:15:12.727Z,2.23
2019-03-15T17:17:40.935Z,1.73
2019-03-15T17:20:10.245Z,2.03
2019-03-15T17:22:38.395Z,2.10
2019-03-15T17:25:07.886Z,2.13
2019-03-15T17:27:36.092Z,1.90
2019-03-15T17:30:17.063Z,2.03
2019-03-15T17:32:45.319Z,2.43
2019-03-15T17:35:14.375Z,1.80
2019-03-15T17:37:42.545Z,1.67
2019-03-15T17:40:11.947Z,2.00
2019-03-15T17:42:40.202Z,2.40
2019-03-15T17:45:08.472Z,1.47
2019-03-15T17:47:36.635Z,1.70
2019-03-15T17:50:06.323Z,2.23
2019-03-15T17:52:34.593Z,1.97
2019-03-15T17:55:02.793Z,1.83
2019-03-15T17:57:30.910Z,2.33
2019-03-15T18:00:00.586Z,2.30
2019-03-15T18:02:28.695Z,2.10
2019-03-15T18:04:56.852Z,2.30
2019-03-15T18:07:24.964Z,2.17
2019-03-15T18:09:53.089Z,2.40
2019-03-15T18:12:21.226Z,2.87
2019-03-15T18:14:49.369Z,2.67
2019-03-15T18:17:17.558Z,2.37
2019-03-15T18:19:45.688Z,2.37
2019-03-15T18:22:13.793Z,2.17
2019-03-15T18:24:43.261Z,2.30
2019-03-15T18:27:11.632Z,2.90
2019-03-15T18:29:39.755Z,2.50
2019-03-15T18:32:07.857Z,2.73
2019-03-15T18:34:36.059Z,2.43
2019-03-15T18:37:04.249Z,2.87
2019-03-15T18:39:32.372Z,2.80
2019-03-15T18:42:00.479Z,2.80
2019-03-15T18:44:28.618Z,3.50
2019-03-15T18:46:56.717Z,3.10
2019-03-15T18:49:24.830Z,3.13
2019-03-15T18:51:52.962Z,2.77
2019-03-15T18:54:21.144Z,3.13
2019-03-15T18:56:49.336Z,3.47
2019-03-15T18:59:17.524Z,3.23
2019-03-15T19:01:45.647Z,3.27
2019-03-15T19:04:13.763Z,3.27
2019-03-15T19:06:41.905Z,3.27
2019-03-15T19:09:10.017Z,3.07
2019-03-15T19:11:38.217Z,3.10
2019-03-15T19:14:06.334Z,3.83
2019-03-15T19:16:34.476Z,3.67
2019-03-15T19:19:02.621Z,3.70
2019-03-15T19:21:30.826Z,3.10
2019-03-15T19:23:58.927Z,4.67
2019-03-15T19:26:28.929Z,5.17
2019-03-15T19:28:56.904Z,2.80
2019-03-15T19:31:25.037Z,2.50
2019-03-15T19:33:53.147Z,1.63
2019-03-15T19:36:21.283Z,1.43
2019-03-15T19:38:49.404Z,1.30
2019-03-15T19:41:17.535Z,0.90
2019-03-15T19:43:45.643Z,1.77
2019-03-15T19:46:13.790Z,1.33
2019-03-15T19:48:42.369Z,2.03
2019-03-15T19:51:10.854Z,2.70
2019-03-15T19:53:39.069Z,2.30
2019-03-15T19:56:07.164Z,1.90
2019-03-15T19:58:35.301Z,2.50
2019-03-15T20:01:03.472Z,1.50
2019-03-15T20:03:43.638Z,1.80
2019-03-15T20:06:01.435Z,1.67
2019-03-15T20:08:30.468Z,1.97
2019-03-15T20:10:58.578Z,2.10
2019-03-15T20:13:26.709Z,1.80
2019-03-15T20:15:54.820Z,2.03
2019-03-15T20:18:22.957Z,2.33
2019-03-15T20:20:51.069Z,2.77
2019-03-15T20:23:19.211Z,2.70
2019-03-15T20:25:47.357Z,2.40
2019-03-15T20:28:15.499Z,2.13
2019-03-15T20:30:51.876Z,6.70
2019-03-15T20:33:13.554Z,2.70
2019-03-15T20:35:41.656Z,2.40
2019-03-15T20:38:09.807Z,2.50
2019-03-15T20:40:40.517Z,2.73
2019-03-15T20:43:08.902Z,3.63
2019-03-15T20:45:37.311Z,3.10
2019-03-15T20:48:05.433Z,3.53
2019-03-15T20:50:46.107Z,3.30
2019-03-15T20:53:09.748Z,4.17
2019-03-15T20:55:34.232Z,3.77
2019-03-15T20:58:02.423Z,4.23
2019-03-15T21:00:35.878Z,4.03
2019-03-15T21:03:00.457Z,2.77
2019-03-15T21:05:28.588Z,2.20
2019-03-15T21:07:56.700Z,2.40
2019-03-15T21:10:24.829Z,2.07
2019-03-15T21:12:52.946Z,1.80
2019-03-15T21:15:21.055Z,2.57
2019-03-15T21:17:51.109Z,1.87
2019-03-15T21:20:22.338Z,2.47
2019-03-15T21:22:49.452Z,3.30
2019-03-15T21:25:17.614Z,2.70
2019-03-15T21:27:53.438Z,3.23
2019-03-15T21:30:18.977Z,3.00
2019-03-15T21:32:47.205Z,2.40
2019-03-15T21:35:15.373Z,2.70
2019-03-15T21:37:43.504Z,3.50
2019-03-15T21:40:12.268Z,3.73
2019-03-15T21:42:40.407Z,4.17
2019-03-15T21:45:09.298Z,3.90
2019-03-15T21:47:37.417Z,3.67
2019-03-15T21:50:07.081Z,4.10
2019-03-15T21:52:35.214Z,4.00
2019-03-15T21:55:03.404Z,4.70
2019-03-15T21:57:31.544Z,4.73
2019-03-15T21:59:59.671Z,4.30
2019-03-15T22:02:27.895Z,4.57
2019-03-15T22:04:56.136Z,4.47
2019-03-15T22:07:24.273Z,4.90
2019-03-15T22:09:55.157Z,4.90
2019-03-15T22:12:22.236Z,5.63
2019-03-15T22:14:50.347Z,5.50
2019-03-15T22:17:18.485Z,5.80
2019-03-15T22:19:46.601Z,5.63
2019-03-15T22:22:14.805Z,6.37
2019-03-15T22:24:42.921Z,6.57
2019-03-15T22:27:11.056Z,6.73
2019-03-15T22:29:52.649Z,6.60
2019-03-15T22:32:09.046Z,5.63
2019-03-15T22:34:37.157Z,5.37
2019-03-15T22:37:05.298Z,5.97
2019-03-15T22:39:33.448Z,5.53
2019-03-15T22:42:01.573Z,5.77
2019-03-15T22:44:29.709Z,5.37
2019-03-15T22:46:57.894Z,5.90
2019-03-15T22:49:26.103Z,5.63
2019-03-15T22:51:54.284Z,5.17
2019-03-15T22:54:22.473Z,5.00
2019-03-15T22:56:50.598Z,5.83
2019-03-15T22:59:18.740Z,5.27
2019-03-15T23:01:46.863Z,5.13
2019-03-15T23:04:14.997Z,5.10
2019-03-15T23:06:43.182Z,5.57
2019-03-15T23:09:11.473Z,5.07
2019-03-15T23:11:39.585Z,4.50
2019-03-15T23:14:07.792Z,4.87
2019-03-15T23:16:35.928Z,3.83
2019-03-15T23:19:04.161Z,3.60
2019-03-15T23:21:32.384Z,3.47
2019-03-15T23:24:00.508Z,3.20
2019-03-15T23:26:28.636Z,3.57
2019-03-15T23:28:56.874Z,2.90
2019-03-15T23:31:25.277Z,2.50
2019-03-15T23:33:53.431Z,2.47
2019-03-15T23:36:21.561Z,2.73
2019-03-15T23:38:49.706Z,3.33
2019-03-15T23:41:17.861Z,3.30
2019-03-15T23:43:46.049Z,2.63
2019-03-15T23:46:14.185Z,3.60
2019-03-15T23:48:42.301Z,3.73
2019-03-15T23:51:10.445Z,3.33
2019-03-15T23:53:38.873Z,3.30
2019-03-15T23:56:07.067Z,3.70
2019-03-15T23:58:35.307Z,4.07
